Time;durP1;ratioP1;P1;durP2;ratioP2;P2;SDS_P1;SDS_P2;PMS_P1;PMS_P2;Temp;Humidity;BMP_temperature;BMP_pressure;BME280_temperature;BME280_humidity;BME280_pressure;Samples;Min_cycle;Max_cycle;Signal;HPM_P1;HPM_P2
2023/05/31 00:02:12;;;;;;;;;;;10.30;99.90;;;;;;5072920;28;19928;-78
2023/05/31 00:04:38;;;;;;;;;;;10.30;99.90;;;;;;5089845;28;20582;-79
2023/05/31 00:07:05;;;;;;;;;;;10.30;99.90;;;;;;5074354;28;19935;-76
2023/05/31 00:09:30;;;;;;;;;;;10.30;99.90;;;;;;5056512;28;19925;-76
2023/05/31 00:11:56;;;;;;;;;;;10.20;99.90;;;;;;5084954;28;19950;-76
2023/05/31 00:14:21;;;;;;;;;;;10.20;99.90;;;;;;5052296;28;19996;-77
2023/05/31 00:16:47;;;;;;;;;;;10.20;99.90;;;;;;5055602;28;19932;-76
2023/05/31 00:19:13;;;;;;;;;;;10.20;99.90;;;;;;5072664;28;19925;-76
2023/05/31 00:21:38;;;;;;;;;;;10.20;99.90;;;;;;5057770;28;19975;-76
2023/05/31 00:24:04;;;;;;;;;;;10.10;99.90;;;;;;5067601;28;19925;-76
2023/05/31 00:26:29;;;;;;;;;;;10.10;99.90;;;;;;5081653;28;19939;-77
2023/05/31 00:28:55;;;;;;;;;;;10.10;99.90;;;;;;5051554;28;19936;-77
2023/05/31 00:31:21;;;;;;;;;;;10.00;99.90;;;;;;5066272;28;19929;-76
2023/05/31 00:33:46;;;;;;;;;;;10.00;99.90;;;;;;5069769;28;19928;-76
2023/05/31 00:36:12;;;;;;;;;;;10.00;99.90;;;;;;5083294;28;19924;-76
2023/05/31 00:38:37;;;;;;;;;;;10.00;99.90;;;;;;5059037;28;19940;-76
2023/05/31 00:41:03;;;;;;;;;;;10.00;99.90;;;;;;5057130;28;19924;-76
2023/05/31 00:43:29;;;;;;;;;;;9.90;99.90;;;;;;5070459;28;19932;-76
2023/05/31 00:45:54;;;;;;;;;;;9.90;99.90;;;;;;5068873;28;19929;-76
2023/05/31 00:48:20;;;;;;;;;;;9.90;99.90;;;;;;5057950;28;19928;-75
2023/05/31 00:50:47;;;;;;;;;;;9.90;99.90;;;;;;5084404;28;19982;-75
2023/05/31 00:53:14;;;;;;;;;;;9.80;99.90;;;;;;5085022;28;19924;-76
2023/05/31 00:55:39;;;;;;;;;;;9.80;99.90;;;;;;5087959;28;19924;-76
2023/05/31 00:58:05;;;;;;;;;;;9.80;99.90;;;;;;5056804;28;19940;-76
2023/05/31 01:00:31;;;;;;;;;;;9.80;99.90;;;;;;5072041;28;19925;-76
2023/05/31 01:03:01;;;;;;;;;;;9.80;99.90;;;;;;5091463;28;19962;-76
2023/05/31 01:05:26;;;;;;;;;;;9.80;99.90;;;;;;5044788;28;19929;-76
2023/05/31 01:07:52;;;;;;;;;;;9.70;99.90;;;;;;5045996;28;20022;-76
2023/05/31 01:10:18;;;;;;;;;;;9.70;99.90;;;;;;5003228;28;1815582;-76
2023/05/31 01:12:44;;;;;;;;;;;9.60;99.90;;;;;;5055874;28;20015;-76
2023/05/31 01:15:12;;;;;;;;;;;9.60;99.90;;;;;;5059548;28;19924;-76
2023/05/31 01:17:50;;;;;;;;;;;9.60;99.90;;;;;;5085230;28;19932;-76
2023/05/31 01:20:17;;;;;;;;;;;9.60;99.90;;;;;;5053336;28;19928;-76
2023/05/31 01:22:47;;;;;;;;;;;9.50;99.90;;;;;;5086110;28;19924;-76
2023/05/31 01:25:18;;;;;;;;;;;9.60;99.90;;;;;;5059634;28;19924;-76
2023/05/31 01:27:45;;;;;;;;;;;9.60;99.90;;;;;;5054566;28;19931;-76
2023/05/31 01:30:11;;;;;;;;;;;9.50;99.90;;;;;;5071075;28;19924;-76
2023/05/31 01:32:37;;;;;;;;;;;9.50;99.90;;;;;;5059830;28;19929;-75
2023/05/31 01:35:03;;;;;;;;;;;9.50;99.90;;;;;;5034348;28;19932;-76
2023/05/31 01:37:29;;;;;;;;;;;9.50;99.90;;;;;;5061732;28;20379;-76
2023/05/31 01:39:55;;;;;;;;;;;9.50;99.90;;;;;;5068546;28;19939;-76
2023/05/31 01:42:22;;;;;;;;;;;9.50;99.90;;;;;;5061760;28;19935;-78
2023/05/31 01:44:48;;;;;;;;;;;9.50;99.90;;;;;;5091155;28;19939;-78
2023/05/31 01:47:14;;;;;;;;;;;9.50;99.90;;;;;;5067327;28;19925;-78
2023/05/31 01:49:40;;;;;;;;;;;9.40;99.90;;;;;;5090419;28;19932;-77
2023/05/31 01:52:07;;;;;;;;;;;9.40;99.90;;;;;;5079411;28;19955;-78
2023/05/31 01:54:33;;;;;;;;;;;9.40;99.90;;;;;;5062290;28;19932;-78
2023/05/31 01:56:59;;;;;;;;;;;9.40;99.90;;;;;;5087924;28;20010;-76
2023/05/31 01:59:25;;;;;;;;;;;9.40;99.90;;;;;;5044657;28;19924;-75
2023/05/31 02:01:51;;;;;;;;;;;9.40;99.90;;;;;;5056603;28;19954;-76
2023/05/31 02:04:18;;;;;;;;;;;9.30;99.90;;;;;;5061900;28;20403;-77
2023/05/31 02:06:44;;;;;;;;;;;9.30;99.90;;;;;;5077467;28;20518;-75
2023/05/31 02:09:09;;;;;;;;;;;9.30;99.90;;;;;;5070772;28;19975;-76
2023/05/31 02:11:35;;;;;;;;;;;9.30;99.90;;;;;;5065851;28;19979;-76
2023/05/31 02:14:01;;;;;;;;;;;9.30;99.90;;;;;;5052040;28;19933;-76
2023/05/31 02:16:26;;;;;;;;;;;9.30;99.90;;;;;;5062828;28;19928;-76
2023/05/31 02:18:52;;;;;;;;;;;9.20;99.90;;;;;;5040568;28;19964;-76
2023/05/31 02:21:17;;;;;;;;;;;9.30;99.90;;;;;;5025988;28;19944;-76
2023/05/31 02:23:43;;;;;;;;;;;9.30;99.90;;;;;;5047585;28;19959;-76
2023/05/31 02:26:08;;;;;;;;;;;9.20;99.90;;;;;;5070498;28;19933;-76
2023/05/31 02:28:34;;;;;;;;;;;9.20;99.90;;;;;;5068365;28;20047;-75
2023/05/31 02:31:00;;;;;;;;;;;9.20;99.90;;;;;;5067908;28;19925;-76
2023/05/31 02:33:26;;;;;;;;;;;9.20;99.90;;;;;;5037720;28;19932;-75
2023/05/31 02:35:52;;;;;;;;;;;9.20;99.90;;;;;;5083162;28;19975;-75
2023/05/31 02:38:18;;;;;;;;;;;9.10;99.90;;;;;;5054838;28;19929;-76
2023/05/31 02:40:43;;;;;;;;;;;9.20;99.90;;;;;;5040041;28;19924;-74
2023/05/31 02:43:10;;;;;;;;;;;9.20;99.90;;;;;;5069227;28;20509;-76
2023/05/31 02:45:35;;;;;;;;;;;9.20;99.90;;;;;;5067258;28;20019;-75
2023/05/31 02:48:04;;;;;;;;;;;9.20;99.90;;;;;;5044627;28;19987;-75
2023/05/31 02:50:31;;;;;;;;;;;9.20;99.90;;;;;;5081774;28;19930;-75
2023/05/31 02:52:56;;;;;;;;;;;9.20;99.90;;;;;;5035870;28;20383;-75
2023/05/31 02:55:22;;;;;;;;;;;9.20;99.90;;;;;;5067984;28;19993;-76
2023/05/31 02:57:48;;;;;;;;;;;9.10;99.90;;;;;;5036896;28;20648;-76
2023/05/31 03:00:14;;;;;;;;;;;9.10;99.90;;;;;;5043676;28;19958;-75
2023/05/31 03:02:40;;;;;;;;;;;9.10;99.90;;;;;;5055945;28;19932;-75
2023/05/31 03:05:06;;;;;;;;;;;9.10;99.90;;;;;;5038680;28;20023;-75
2023/05/31 03:07:32;;;;;;;;;;;9.10;99.90;;;;;;5069588;28;19925;-76
2023/05/31 03:09:58;;;;;;;;;;;9.10;99.90;;;;;;5060052;28;19925;-76
2023/05/31 03:12:23;;;;;;;;;;;9.20;99.90;;;;;;5075712;28;19929;-76
2023/05/31 03:14:49;;;;;;;;;;;9.10;99.90;;;;;;5069519;28;19924;-75
2023/05/31 03:17:15;;;;;;;;;;;9.20;99.90;;;;;;5103634;28;19924;-76
2023/05/31 03:19:40;;;;;;;;;;;9.10;99.90;;;;;;5070928;28;19955;-76
2023/05/31 03:22:06;;;;;;;;;;;9.10;99.90;;;;;;5069759;28;19980;-75
2023/05/31 03:24:31;;;;;;;;;;;9.10;99.90;;;;;;5069815;28;19959;-76
2023/05/31 03:26:57;;;;;;;;;;;9.20;99.90;;;;;;5102215;28;19932;-75
2023/05/31 03:29:22;;;;;;;;;;;9.10;99.90;;;;;;5058539;28;19931;-75
2023/05/31 03:31:48;;;;;;;;;;;9.10;99.90;;;;;;5070209;28;19924;-76
2023/05/31 03:34:14;;;;;;;;;;;9.10;99.90;;;;;;5077225;28;20403;-76
2023/05/31 03:36:40;;;;;;;;;;;9.10;99.90;;;;;;5067919;28;19924;-75
2023/05/31 03:39:05;;;;;;;;;;;9.10;99.90;;;;;;5080110;28;19929;-75
2023/05/31 03:41:31;;;;;;;;;;;9.20;99.90;;;;;;5072062;28;19987;-76
2023/05/31 03:43:57;;;;;;;;;;;9.20;99.90;;;;;;5069170;28;19940;-75
2023/05/31 03:46:23;;;;;;;;;;;9.20;99.90;;;;;;5061138;28;19924;-76
2023/05/31 03:48:48;;;;;;;;;;;9.20;99.90;;;;;;5059515;28;19924;-75
2023/05/31 03:51:14;;;;;;;;;;;9.20;99.90;;;;;;5084969;28;21288;-75
2023/05/31 03:53:40;;;;;;;;;;;9.20;99.90;;;;;;5063514;28;19958;-76
2023/05/31 03:56:05;;;;;;;;;;;9.20;99.90;;;;;;5084059;28;20261;-76
2023/05/31 03:58:31;;;;;;;;;;;9.20;99.90;;;;;;5107799;27;19950;-76
2023/05/31 04:00:57;;;;;;;;;;;9.20;99.90;;;;;;5072053;28;19995;-76
2023/05/31 04:03:23;;;;;;;;;;;9.30;99.90;;;;;;5079001;28;19925;-75
2023/05/31 04:05:49;;;;;;;;;;;9.30;99.90;;;;;;5074565;28;20289;-76
2023/05/31 04:08:14;;;;;;;;;;;9.30;99.90;;;;;;5091279;28;20019;-76
2023/05/31 04:10:40;;;;;;;;;;;9.30;99.90;;;;;;5097120;28;19924;-76
2023/05/31 04:13:06;;;;;;;;;;;9.30;99.90;;;;;;5080280;28;19983;-75
2023/05/31 04:15:31;;;;;;;;;;;9.40;99.90;;;;;;5082109;28;19924;-75
2023/05/31 04:17:57;;;;;;;;;;;9.40;99.90;;;;;;5044782;28;19967;-76
2023/05/31 04:20:23;;;;;;;;;;;9.40;99.90;;;;;;5044247;28;20007;-75
2023/05/31 04:22:49;;;;;;;;;;;9.50;99.90;;;;;;5092717;28;19924;-76
2023/05/31 04:25:17;;;;;;;;;;;9.50;99.90;;;;;;5061490;28;19939;-75
2023/05/31 04:27:42;;;;;;;;;;;9.60;99.90;;;;;;5075528;28;19940;-75
2023/05/31 04:30:08;;;;;;;;;;;9.60;99.90;;;;;;5097084;28;19931;-76
2023/05/31 04:32:34;;;;;;;;;;;9.70;99.90;;;;;;5073581;28;19944;-75
2023/05/31 04:35:03;;;;;;;;;;;9.70;99.90;;;;;;5093417;28;19924;-75
2023/05/31 04:37:32;;;;;;;;;;;9.80;99.90;;;;;;5083577;28;19924;-75
2023/05/31 04:39:58;;;;;;;;;;;9.80;99.90;;;;;;5075136;28;19936;-75
2023/05/31 04:42:24;;;;;;;;;;;9.90;99.90;;;;;;5091397;28;20348;-76
2023/05/31 04:44:51;;;;;;;;;;;10.00;99.90;;;;;;5094506;28;19925;-76
2023/05/31 04:47:18;;;;;;;;;;;10.10;99.90;;;;;;5082080;28;20590;-75
2023/05/31 04:49:45;;;;;;;;;;;10.20;99.90;;;;;;5076882;28;19931;-76
2023/05/31 04:52:11;;;;;;;;;;;10.40;99.90;;;;;;5075051;28;19960;-75
2023/05/31 04:54:37;;;;;;;;;;;10.60;99.90;;;;;;5092544;28;19932;-76
2023/05/31 04:57:02;;;;;;;;;;;10.80;99.90;;;;;;5066321;28;19928;-76
2023/05/31 04:59:28;;;;;;;;;;;10.90;99.90;;;;;;5067216;28;20023;-75
2023/05/31 05:01:53;;;;;;;;;;;11.00;99.90;;;;;;5069582;28;20015;-76
2023/05/31 05:04:19;;;;;;;;;;;11.10;99.90;;;;;;5064911;28;19936;-76
2023/05/31 05:06:45;;;;;;;;;;;11.20;99.90;;;;;;5073862;28;19924;-76
2023/05/31 05:09:10;;;;;;;;;;;11.50;99.90;;;;;;5077355;28;19974;-76
2023/05/31 05:11:36;;;;;;;;;;;11.90;99.90;;;;;;5075523;28;19947;-76
2023/05/31 05:14:01;;;;;;;;;;;12.50;99.90;;;;;;5058365;28;19947;-76
2023/05/31 05:16:27;;;;;;;;;;;13.10;99.90;;;;;;5081256;28;19925;-76
2023/05/31 05:18:53;;;;;;;;;;;13.60;99.90;;;;;;5050229;28;19947;-76
2023/05/31 05:21:18;;;;;;;;;;;14.20;99.90;;;;;;5110673;27;19924;-76
2023/05/31 05:23:44;;;;;;;;;;;14.60;99.90;;;;;;5086708;28;19948;-76
2023/05/31 05:26:10;;;;;;;;;;;15.00;99.90;;;;;;5061419;28;19924;-76
2023/05/31 05:28:35;;;;;;;;;;;15.40;99.90;;;;;;5083932;28;19928;-77
2023/05/31 05:31:03;;;;;;;;;;;15.70;99.90;;;;;;5086405;28;19944;-77
2023/05/31 05:33:29;;;;;;;;;;;15.90;99.90;;;;;;5091903;28;19935;-76
2023/05/31 05:35:55;;;;;;;;;;;16.10;99.90;;;;;;5100787;28;19967;-77
2023/05/31 05:38:20;;;;;;;;;;;16.30;99.90;;;;;;5098227;28;20405;-77
2023/05/31 05:40:46;;;;;;;;;;;16.60;99.90;;;;;;5061635;28;20325;-76
2023/05/31 05:43:12;;;;;;;;;;;16.90;99.90;;;;;;5095391;28;19923;-77
2023/05/31 05:45:38;;;;;;;;;;;17.00;99.90;;;;;;5067892;28;19932;-78
2023/05/31 05:48:03;;;;;;;;;;;17.20;99.90;;;;;;5095012;28;19943;-77
2023/05/31 05:50:29;;;;;;;;;;;17.40;99.90;;;;;;5058306;28;19991;-77
2023/05/31 05:52:54;;;;;;;;;;;17.50;99.90;;;;;;5057472;28;19924;-77
2023/05/31 05:55:20;;;;;;;;;;;17.70;99.90;;;;;;5075274;28;19979;-77
2023/05/31 05:57:46;;;;;;;;;;;17.80;99.90;;;;;;5061233;28;19960;-77
2023/05/31 06:00:13;;;;;;;;;;;18.10;99.90;;;;;;5060008;28;19928;-77
2023/05/31 06:02:40;;;;;;;;;;;18.30;99.90;;;;;;5063200;28;19925;-76
2023/05/31 06:05:06;;;;;;;;;;;18.40;99.90;;;;;;5059448;28;19924;-77
2023/05/31 06:07:32;;;;;;;;;;;18.40;99.90;;;;;;5079655;28;19928;-76
2023/05/31 06:09:57;;;;;;;;;;;18.50;99.90;;;;;;5065749;28;20042;-76
2023/05/31 06:12:23;;;;;;;;;;;18.50;99.90;;;;;;5101169;28;19946;-78
2023/05/31 06:14:49;;;;;;;;;;;18.70;99.90;;;;;;5074133;28;19925;-76
2023/05/31 06:17:15;;;;;;;;;;;18.90;99.90;;;;;;5066856;28;19925;-75
2023/05/31 06:19:40;;;;;;;;;;;19.00;99.90;;;;;;5070431;28;20022;-76
2023/05/31 06:22:06;;;;;;;;;;;19.10;99.90;;;;;;5081177;28;19956;-79
2023/05/31 06:24:31;;;;;;;;;;;19.30;99.90;;;;;;5078853;28;19924;-79
2023/05/31 06:26:57;;;;;;;;;;;19.40;99.90;;;;;;5096285;28;20454;-79
2023/05/31 06:29:23;;;;;;;;;;;19.40;99.90;;;;;;5060933;28;20363;-79
2023/05/31 06:31:48;;;;;;;;;;;19.30;99.90;;;;;;5096771;28;19924;-79
2023/05/31 06:34:14;;;;;;;;;;;19.20;99.90;;;;;;5064723;28;20050;-79
2023/05/31 06:36:41;;;;;;;;;;;19.20;99.90;;;;;;5060812;28;19929;-77
2023/05/31 06:39:06;;;;;;;;;;;19.20;99.90;;;;;;5091494;28;19924;-76
2023/05/31 06:41:34;;;;;;;;;;;19.50;99.90;;;;;;5071218;28;19924;-87
2023/05/31 06:44:00;;;;;;;;;;;19.70;99.90;;;;;;5054567;28;20433;-89
2023/05/31 06:46:26;;;;;;;;;;;19.90;99.90;;;;;;5059794;28;19960;-88
2023/05/31 06:48:51;;;;;;;;;;;20.10;99.90;;;;;;5074966;28;19985;-89
2023/05/31 06:51:19;;;;;;;;;;;20.40;99.90;;;;;;5079006;28;20498;-87
2023/05/31 06:53:45;;;;;;;;;;;20.70;99.90;;;;;;5055360;28;19935;-88
2023/05/31 06:56:10;;;;;;;;;;;20.80;99.90;;;;;;5110021;28;19924;-88
2023/05/31 06:58:36;;;;;;;;;;;20.80;99.90;;;;;;5076318;28;20416;-89
2023/05/31 07:01:01;;;;;;;;;;;21.00;99.90;;;;;;5039882;28;19947;-91
2023/05/31 07:03:27;;;;;;;;;;;21.10;99.90;;;;;;5078954;28;19991;-91
2023/05/31 07:05:52;;;;;;;;;;;21.20;99.90;;;;;;5084706;28;19929;-92
2023/05/31 07:08:18;;;;;;;;;;;21.20;99.90;;;;;;5078802;28;20003;-91
2023/05/31 07:10:45;;;;;;;;;;;21.10;99.90;;;;;;5075557;28;19970;-91
2023/05/31 07:13:11;;;;;;;;;;;21.20;99.90;;;;;;5046987;28;20015;-90
2023/05/31 07:15:36;;;;;;;;;;;21.40;99.90;;;;;;5061634;28;19925;-90
2023/05/31 07:18:02;;;;;;;;;;;21.30;99.90;;;;;;5067648;28;20414;-90
2023/05/31 07:20:28;;;;;;;;;;;21.30;99.90;;;;;;5094820;28;19925;-93
2023/05/31 07:22:53;;;;;;;;;;;21.50;99.90;;;;;;5079738;28;19932;-92
2023/05/31 07:25:19;;;;;;;;;;;21.60;99.90;;;;;;5085321;28;19931;-93
2023/05/31 07:27:45;;;;;;;;;;;21.60;99.90;;;;;;5075494;28;19954;-89
2023/05/31 07:30:10;;;;;;;;;;;21.80;99.90;;;;;;5073980;28;19924;-91
2023/05/31 07:32:36;;;;;;;;;;;21.70;99.90;;;;;;5058226;28;19947;-92
2023/05/31 07:35:02;;;;;;;;;;;21.60;99.90;;;;;;5083295;28;19925;-91
2023/05/31 07:37:28;;;;;;;;;;;21.70;99.90;;;;;;5079819;28;20402;-88
2023/05/31 07:39:53;;;;;;;;;;;21.70;99.90;;;;;;5066903;28;19943;-89
2023/05/31 07:42:20;;;;;;;;;;;21.70;99.90;;;;;;5077833;28;19968;-89
2023/05/31 07:44:48;;;;;;;;;;;21.80;99.90;;;;;;5039668;28;19967;-91
2023/05/31 07:47:14;;;;;;;;;;;21.70;99.90;;;;;;5057448;28;19931;-91
2023/05/31 07:49:40;;;;;;;;;;;21.60;99.90;;;;;;5077896;28;20398;-90
2023/05/31 07:52:05;;;;;;;;;;;21.80;99.90;;;;;;5070600;28;19964;-93
2023/05/31 07:54:31;;;;;;;;;;;22.00;99.90;;;;;;5067187;28;19928;-89
2023/05/31 07:56:57;;;;;;;;;;;22.20;99.90;;;;;;5073740;28;19932;-89
2023/05/31 07:59:22;;;;;;;;;;;22.20;99.20;;;;;;5073811;28;19994;-87
2023/05/31 08:01:48;;;;;;;;;;;22.30;98.10;;;;;;5076911;28;19935;-91
2023/05/31 08:04:13;;;;;;;;;;;22.40;96.80;;;;;;5091367;28;19929;-90
2023/05/31 08:06:41;;;;;;;;;;;22.40;97.40;;;;;;5059125;28;19928;-92
2023/05/31 08:09:07;;;;;;;;;;;22.40;99.20;;;;;;5074792;28;19943;-92
2023/05/31 08:11:35;;;;;;;;;;;22.40;98.60;;;;;;5060825;28;19928;-90
2023/05/31 08:14:01;;;;;;;;;;;22.30;93.90;;;;;;5094996;28;19928;-91
2023/05/31 08:16:26;;;;;;;;;;;22.40;99.80;;;;;;5053711;28;19935;-93
2023/05/31 08:18:52;;;;;;;;;;;22.30;96.80;;;;;;5083677;28;19971;-91
2023/05/31 08:21:17;;;;;;;;;;;22.30;97.90;;;;;;5057395;28;19924;-91
2023/05/31 08:23:43;;;;;;;;;;;22.40;97.50;;;;;;5064679;28;19928;-90
2023/05/31 08:26:09;;;;;;;;;;;22.50;99.90;;;;;;5101098;28;19931;-92
2023/05/31 08:28:34;;;;;;;;;;;22.50;99.10;;;;;;5069101;28;19939;-92
2023/05/31 08:31:00;;;;;;;;;;;22.60;98.70;;;;;;5063384;28;19930;-92
2023/05/31 08:33:28;;;;;;;;;;;22.70;99.90;;;;;;5079180;28;19932;-91
2023/05/31 08:35:59;;;;;;;;;;;22.60;99.90;;;;;;5062895;28;19963;-93
2023/05/31 08:38:28;;;;;;;;;;;22.70;98.10;;;;;;5095134;28;20004;-91
2023/05/31 08:40:56;;;;;;;;;;;22.70;97.30;;;;;;5062244;28;19931;-92
2023/05/31 08:43:25;;;;;;;;;;;22.90;93.60;;;;;;5064298;28;19931;-90
2023/05/31 08:45:51;;;;;;;;;;;22.90;94.20;;;;;;5063967;28;19988;-88
2023/05/31 08:48:29;;;;;;;;;;;23.00;93.10;;;;;;5071507;28;19924;-89
2023/05/31 08:50:56;;;;;;;;;;;23.00;99.30;;;;;;5102879;28;19924;-88
2023/05/31 08:53:24;;;;;;;;;;;23.00;93.30;;;;;;5097131;28;19932;-88
2023/05/31 08:55:50;;;;;;;;;;;23.20;98.40;;;;;;5084277;28;19924;-89
2023/05/31 08:58:16;;;;;;;;;;;23.40;88.50;;;;;;5079242;28;19939;-91
2023/05/31 09:00:43;;;;;;;;;;;23.50;94.00;;;;;;5098280;28;19946;-88
2023/05/31 09:03:10;;;;;;;;;;;23.40;92.10;;;;;;5068375;28;19931;-89
2023/05/31 09:05:35;;;;;;;;;;;23.40;91.90;;;;;;5066905;28;20386;-89
2023/05/31 09:08:01;;;;;;;;;;;23.50;95.10;;;;;;5082794;28;19931;-89
2023/05/31 09:10:28;;;;;;;;;;;23.50;86.60;;;;;;5063475;28;19927;-90
2023/05/31 09:12:54;;;;;;;;;;;23.60;90.70;;;;;;5080384;28;19924;-90
2023/05/31 09:15:21;;;;;;;;;;;23.70;92.10;;;;;;5094849;28;19971;-89
2023/05/31 09:17:47;;;;;;;;;;;23.80;91.00;;;;;;5104936;28;19932;-90
2023/05/31 09:20:13;;;;;;;;;;;23.90;92.60;;;;;;5079768;28;19947;-90
2023/05/31 09:22:38;;;;;;;;;;;23.90;91.80;;;;;;5048433;28;19925;-89
2023/05/31 09:25:04;;;;;;;;;;;24.10;93.50;;;;;;5104822;28;19984;-88
2023/05/31 09:27:39;;;;;;;;;;;24.20;88.30;;;;;;5096026;28;19924;-89
2023/05/31 09:30:06;;;;;;;;;;;24.20;92.40;;;;;;5051820;28;19932;-89
2023/05/31 09:32:33;;;;;;;;;;;24.20;91.00;;;;;;5101634;28;19947;-90
2023/05/31 09:35:28;;;;;;;;;;;24.40;87.50;;;;;;5064052;28;19983;-88
2023/05/31 09:37:53;;;;;;;;;;;24.40;85.60;;;;;;5060386;28;19924;-89
2023/05/31 09:40:27;;;;;;;;;;;24.50;90.20;;;;;;5041785;28;19991;-90
2023/05/31 09:42:53;;;;;;;;;;;24.60;78.80;;;;;;5060042;28;20329;-91
2023/05/31 09:45:19;;;;;;;;;;;24.70;82.00;;;;;;5042787;28;19976;-89
2023/05/31 09:47:45;;;;;;;;;;;24.60;89.30;;;;;;5088338;28;20348;-89
2023/05/31 09:50:11;;;;;;;;;;;24.70;85.70;;;;;;5101012;28;20538;-89
2023/05/31 09:52:38;;;;;;;;;;;24.80;80.70;;;;;;5076982;28;19935;-88
2023/05/31 09:55:07;;;;;;;;;;;24.90;78.20;;;;;;5094871;28;19928;-87
2023/05/31 09:57:40;;;;;;;;;;;25.00;81.50;;;;;;5068512;28;19920;-91
2023/05/31 10:00:13;;;;;;;;;;;24.90;82.00;;;;;;5063704;28;19934;-92
2023/05/31 10:02:42;;;;;;;;;;;25.00;82.80;;;;;;5079147;28;19925;-91
2023/05/31 10:05:08;;;;;;;;;;;25.00;79.20;;;;;;5098211;28;19929;-91
2023/05/31 10:07:35;;;;;;;;;;;25.00;79.30;;;;;;5071932;28;19946;-91
2023/05/31 10:10:01;;;;;;;;;;;25.00;76.60;;;;;;5100058;28;19935;-91
2023/05/31 10:12:27;;;;;;;;;;;25.00;77.50;;;;;;5052986;28;19929;-92
2023/05/31 10:15:00;;;;;;;;;;;25.00;76.00;;;;;;5083206;28;20026;-91
2023/05/31 10:17:28;;;;;;;;;;;25.00;81.70;;;;;;5101286;28;19925;-91
2023/05/31 10:20:00;;;;;;;;;;;25.00;78.70;;;;;;5068221;28;19988;-92
2023/05/31 10:22:29;;;;;;;;;;;25.20;82.30;;;;;;5098239;28;19935;-92
2023/05/31 10:24:59;;;;;;;;;;;25.20;82.20;;;;;;5080190;28;20032;-91
2023/05/31 10:27:31;;;;;;;;;;;25.20;72.80;;;;;;5120458;27;19935;-91
2023/05/31 10:30:04;;;;;;;;;;;25.20;77.50;;;;;;5076912;28;19935;-92
2023/05/31 10:32:32;;;;;;;;;;;25.10;76.80;;;;;;5074110;28;19973;-91
2023/05/31 10:34:58;;;;;;;;;;;25.10;76.60;;;;;;5081697;28;20363;-92
2023/05/31 10:37:23;;;;;;;;;;;25.00;79.20;;;;;;5086126;28;20459;-89
2023/05/31 10:39:53;;;;;;;;;;;25.00;75.60;;;;;;5069448;28;19924;-92
2023/05/31 10:42:27;;;;;;;;;;;25.00;75.00;;;;;;5103152;28;19998;-91
2023/05/31 10:44:56;;;;;;;;;;;25.30;78.40;;;;;;5065261;28;19932;-91
2023/05/31 10:47:24;;;;;;;;;;;25.40;80.00;;;;;;5069101;28;19997;-90
2023/05/31 10:49:52;;;;;;;;;;;25.40;71.90;;;;;;5065934;28;19924;-92
2023/05/31 10:52:17;;;;;;;;;;;25.40;77.20;;;;;;5064298;28;19964;-92
2023/05/31 10:54:43;;;;;;;;;;;25.40;76.30;;;;;;5085792;28;19928;-93
2023/05/31 10:57:10;;;;;;;;;;;25.40;69.50;;;;;;5079836;28;20351;-92
2023/05/31 10:59:41;;;;;;;;;;;25.30;72.00;;;;;;5077484;28;19925;-94
2023/05/31 11:02:06;;;;;;;;;;;25.30;75.10;;;;;;5099721;28;19924;-92
2023/05/31 11:04:32;;;;;;;;;;;25.40;74.50;;;;;;5095787;28;20322;-92
2023/05/31 11:07:15;;;;;;;;;;;25.50;75.20;;;;;;5081063;28;19938;-91
2023/05/31 11:09:42;;;;;;;;;;;25.50;70.10;;;;;;5103275;28;19925;-91
2023/05/31 11:12:11;;;;;;;;;;;25.50;67.20;;;;;;5099563;28;19952;-93
2023/05/31 11:14:37;;;;;;;;;;;25.60;70.90;;;;;;5083138;28;19928;-92
2023/05/31 11:17:04;;;;;;;;;;;25.70;66.70;;;;;;5088444;28;20016;-90
2023/05/31 11:19:30;;;;;;;;;;;25.60;70.90;;;;;;5080532;28;19931;-92
2023/05/31 11:21:57;;;;;;;;;;;25.60;68.30;;;;;;5100324;28;19934;-92
2023/05/31 11:24:28;;;;;;;;;;;25.70;69.90;;;;;;5097000;28;19931;-92
2023/05/31 11:26:55;;;;;;;;;;;25.80;70.30;;;;;;5055052;28;19932;-92
2023/05/31 11:29:20;;;;;;;;;;;25.90;72.40;;;;;;5065921;28;19984;-91
2023/05/31 11:31:54;;;;;;;;;;;25.90;69.50;;;;;;5084271;28;19924;-93
2023/05/31 11:34:20;;;;;;;;;;;25.70;69.30;;;;;;5072590;28;19982;-92
2023/05/31 11:36:46;;;;;;;;;;;25.80;69.40;;;;;;5062320;28;19924;-93
2023/05/31 11:39:12;;;;;;;;;;;25.80;71.30;;;;;;5064696;28;19925;-94
2023/05/31 11:41:37;;;;;;;;;;;25.90;70.50;;;;;;5086593;28;19935;-90
2023/05/31 11:44:05;;;;;;;;;;;25.90;68.80;;;;;;5098793;28;19925;-91
2023/05/31 11:46:31;;;;;;;;;;;26.10;69.10;;;;;;5081756;28;19925;-88
2023/05/31 11:48:57;;;;;;;;;;;26.10;69.50;;;;;;5078164;28;19928;-80
2023/05/31 11:51:23;;;;;;;;;;;26.10;65.30;;;;;;5074694;28;19954;-80
2023/05/31 11:53:48;;;;;;;;;;;26.00;66.70;;;;;;5105738;28;19924;-79
2023/05/31 11:56:14;;;;;;;;;;;26.00;67.90;;;;;;5085038;28;19935;-80
2023/05/31 11:58:45;;;;;;;;;;;25.90;65.70;;;;;;5080435;28;19981;-80
2023/05/31 12:01:12;;;;;;;;;;;25.90;68.40;;;;;;5072387;28;19925;-79
2023/05/31 12:03:41;;;;;;;;;;;25.90;68.30;;;;;;5082709;28;19928;-79
2023/05/31 12:06:07;;;;;;;;;;;25.90;68.50;;;;;;5058949;28;19990;-79
2023/05/31 12:08:32;;;;;;;;;;;26.00;69.20;;;;;;5093164;28;19929;-79
2023/05/31 12:11:03;;;;;;;;;;;25.90;70.20;;;;;;5066539;28;19939;-79
2023/05/31 12:13:28;;;;;;;;;;;25.80;69.90;;;;;;5074052;28;19925;-79
2023/05/31 12:15:55;;;;;;;;;;;25.70;71.20;;;;;;5099271;28;19925;-80
2023/05/31 12:18:22;;;;;;;;;;;25.60;73.50;;;;;;5079793;28;19928;-78
2023/05/31 12:20:48;;;;;;;;;;;25.60;74.30;;;;;;5068510;28;20702;-79
2023/05/31 12:23:18;;;;;;;;;;;25.50;75.80;;;;;;5064370;28;19946;-79
2023/05/31 12:25:48;;;;;;;;;;;25.40;73.10;;;;;;5073692;28;19975;-78
2023/05/31 12:28:15;;;;;;;;;;;25.30;74.90;;;;;;5081096;28;19924;-78
2023/05/31 12:30:43;;;;;;;;;;;25.30;74.50;;;;;;5058286;28;19925;-78
2023/05/31 12:33:09;;;;;;;;;;;25.20;77.30;;;;;;5094252;28;20422;-74
2023/05/31 12:35:42;;;;;;;;;;;25.20;75.00;;;;;;5090671;28;19924;-74
2023/05/31 12:38:08;;;;;;;;;;;25.00;74.60;;;;;;5045529;28;19971;-75
2023/05/31 12:40:38;;;;;;;;;;;25.00;77.00;;;;;;5068330;28;19994;-75
2023/05/31 12:43:04;;;;;;;;;;;25.00;78.90;;;;;;5090738;28;19925;-75
2023/05/31 12:45:30;;;;;;;;;;;25.00;77.70;;;;;;5092060;28;19950;-76
2023/05/31 12:47:56;;;;;;;;;;;25.10;77.30;;;;;;5092334;28;19924;-75
2023/05/31 12:50:22;;;;;;;;;;;25.10;78.80;;;;;;5076668;28;20319;-75
2023/05/31 12:52:55;;;;;;;;;;;25.10;75.80;;;;;;5058390;28;20453;-75
2023/05/31 12:55:20;;;;;;;;;;;25.10;78.90;;;;;;5085175;28;19924;-74
2023/05/31 12:57:46;;;;;;;;;;;25.00;77.10;;;;;;5042340;28;19974;-75
2023/05/31 13:00:12;;;;;;;;;;;25.00;73.60;;;;;;5090589;28;19924;-74
2023/05/31 13:02:41;;;;;;;;;;;25.00;72.40;;;;;;5057644;28;19935;-74
2023/05/31 13:05:07;;;;;;;;;;;25.00;75.10;;;;;;5050121;28;20541;-74
2023/05/31 13:07:33;;;;;;;;;;;24.90;73.00;;;;;;5055157;28;19982;-74
2023/05/31 13:09:59;;;;;;;;;;;24.80;74.60;;;;;;5069360;28;19964;-74
2023/05/31 13:12:24;;;;;;;;;;;24.60;73.20;;;;;;5086814;28;20566;-75
2023/05/31 13:14:53;;;;;;;;;;;24.50;76.40;;;;;;5055223;28;20395;-74
2023/05/31 13:17:18;;;;;;;;;;;24.20;78.50;;;;;;5086794;28;19933;-74
2023/05/31 13:19:44;;;;;;;;;;;24.30;79.00;;;;;;5049790;28;19931;-74
2023/05/31 13:22:11;;;;;;;;;;;24.30;77.60;;;;;;5092041;28;19935;-74
2023/05/31 13:24:37;;;;;;;;;;;24.40;76.30;;;;;;5065592;28;19927;-73
2023/05/31 13:27:03;;;;;;;;;;;24.40;79.20;;;;;;5065094;28;19971;-73
2023/05/31 13:29:30;;;;;;;;;;;24.40;78.10;;;;;;5094132;28;19999;-74
2023/05/31 13:31:56;;;;;;;;;;;24.40;77.20;;;;;;5064645;28;19929;-74
2023/05/31 13:34:21;;;;;;;;;;;24.30;75.60;;;;;;5089166;28;19928;-73
2023/05/31 13:36:47;;;;;;;;;;;24.40;78.20;;;;;;5049012;28;19958;-73
2023/05/31 13:39:14;;;;;;;;;;;24.50;80.80;;;;;;5091870;28;19929;-74
2023/05/31 13:41:43;;;;;;;;;;;24.60;76.70;;;;;;5062505;28;19924;-73
2023/05/31 13:44:09;;;;;;;;;;;24.60;77.50;;;;;;5061067;28;20229;-73
2023/05/31 13:46:36;;;;;;;;;;;24.60;77.30;;;;;;5094144;28;19928;-73
2023/05/31 13:49:01;;;;;;;;;;;24.60;76.20;;;;;;5068786;28;19979;-74
2023/05/31 13:51:27;;;;;;;;;;;24.40;76.00;;;;;;5080085;28;19952;-74
2023/05/31 13:53:52;;;;;;;;;;;24.30;70.30;;;;;;5078641;28;19929;-75
2023/05/31 13:56:18;;;;;;;;;;;24.20;76.40;;;;;;5059755;28;19929;-75
2023/05/31 13:58:44;;;;;;;;;;;24.20;76.90;;;;;;5053883;28;19956;-74
2023/05/31 14:01:09;;;;;;;;;;;24.10;76.10;;;;;;5055917;28;19924;-75
2023/05/31 14:03:35;;;;;;;;;;;24.00;73.70;;;;;;5087433;28;19925;-75
2023/05/31 14:06:01;;;;;;;;;;;24.00;75.90;;;;;;5056941;28;19940;-74
2023/05/31 14:08:27;;;;;;;;;;;23.90;76.70;;;;;;5057012;28;20006;-75
2023/05/31 14:10:53;;;;;;;;;;;23.90;74.70;;;;;;5060325;28;20008;-74
2023/05/31 14:13:18;;;;;;;;;;;24.00;76.10;;;;;;5073895;28;19936;-73
2023/05/31 14:15:44;;;;;;;;;;;24.10;78.10;;;;;;5066594;28;19930;-74
2023/05/31 14:18:10;;;;;;;;;;;24.20;78.30;;;;;;5057983;28;20379;-80